Minerva Sophia — SVAT8 — position and weather

sailwx.info

Track history (hours):
 
Tides and Currents Weather Stations Pressure Air Temp Water Temp Dewpoint Dewpoint Depression Visibility Wind Speed Wind Dir Waves Ship Positions

Minerva Sophia

Last reported at 2018-Feb-06 22:48 UTC. Time now 2018-Feb-25 13:40 UTC.
Position N 26°24' W 078°46'.
Warning: this ship's position is 18 days out of date.

Length 249 m; draft 13 m.

Type: Tanker. MMSI: 240947000.

Date/timePositionNaut miles runAvg speedWind from/ knotsBaromVisibWave heightAir tempDewpointWater temp
2018-Feb-06 22:48N 26°24' W 078°46'5 0.4
2018-Feb-06 10:12N 26°21' W 078°51'0 0.1
2018-Feb-06 08:31N 26°21' W 078°50'0 0.2
2018-Feb-06 08:27N 26°21' W 078°50'0 0.1
2018-Feb-06 07:50N 26°21' W 078°50'0 0.1
2018-Feb-06 07:25N 26°21' W 078°50'0 0.4
2018-Feb-06 06:17N 26°21' W 078°50'6 0.8
2018-Feb-05 22:54N 26°25' W 078°44'10 0.8
2018-Feb-05 09:18N 26°16' W 078°51'0 0.2
2018-Feb-05 09:00N 26°16' W 078°51'0 0.2
2018-Feb-05 08:30N 26°16' W 078°51'5 2.1
2018-Feb-05 06:05N 26°21' W 078°50'  
Track history (hours):
 
Tides and Currents Weather Stations Pressure Air Temp Water Temp Dewpoint Dewpoint Depression Visibility Wind Speed Wind Dir Waves Ship Positions

Minerva Sophia

Last reported at 2018-Feb-06 22:48 UTC. Time now 2018-Feb-25 13:40 UTC.
Position N 26°24' W 078°46'.
Warning: this ship's position is 18 days out of date.

Length 249 m; draft 13 m.

Type: Tanker. MMSI: 240947000.

Date/timePositionNaut miles runAvg speedWind from/ knotsBaromVisibWave heightAir tempDewpointWater temp
2018-Feb-06 22:48N 26°24' W 078°46'5 0.4
2018-Feb-06 10:12N 26°21' W 078°51'0 0.1
2018-Feb-06 08:31N 26°21' W 078°50'0 0.2
2018-Feb-06 08:27N 26°21' W 078°50'0 0.1
2018-Feb-06 07:50N 26°21' W 078°50'0 0.1
2018-Feb-06 07:25N 26°21' W 078°50'0 0.4
2018-Feb-06 06:17N 26°21' W 078°50'6 0.8
2018-Feb-05 22:54N 26°25' W 078°44'10 0.8
2018-Feb-05 09:18N 26°16' W 078°51'0 0.2
2018-Feb-05 09:00N 26°16' W 078°51'0 0.2
2018-Feb-05 08:30N 26°16' W 078°51'5 2.1
2018-Feb-05 06:05N 26°21' W 078°50'  

Dump ship's entire track history